Time;durP1;ratioP1;P1;durP2;ratioP2;P2;SDS_P1;SDS_P2;PMS_P1;PMS_P2;Temp;Humidity;BMP_temperature;BMP_pressure;BME280_temperature;BME280_humidity;BME280_pressure;Samples;Min_cycle;Max_cycle;Signal;HPM_P1;HPM_P2
2024/04/03 00:02:39;;;;;;;21.65;8.93;;;;;;;7.83;100.00;100428.44;10067407;28;20061;-70
2024/04/03 00:07:34;;;;;;;22.77;8.38;;;;;;;7.79;100.00;100439.91;10071687;28;20142;-70
2024/04/03 00:12:30;;;;;;;23.27;9.20;;;;;;;7.85;100.00;100453.44;10058287;28;20034;-70
2024/04/03 00:17:26;;;;;;;22.95;8.65;;;;;;;7.69;100.00;100472.81;10085422;28;20047;-70
2024/04/03 00:22:22;;;;;;;16.95;9.32;;;;;;;7.45;100.00;100464.06;10075967;28;20498;-70
2024/04/03 00:27:17;;;;;;;19.17;9.25;;;;;;;7.57;100.00;100475.25;10089555;28;20043;-71
2024/04/03 00:32:13;;;;;;;19.60;9.32;;;;;;;7.57;100.00;100477.97;10096814;28;20496;-70
2024/04/03 00:37:09;;;;;;;14.52;9.25;;;;;;;7.29;100.00;100475.25;10082409;28;20583;-70
2024/04/03 00:42:04;;;;;;;13.30;8.43;;;;;;;7.31;100.00;100489.34;10093334;28;20040;-71
2024/04/03 00:47:01;;;;;;;17.23;8.43;;;;;;;7.10;100.00;100488.09;10035485;28;20051;-70
2024/04/03 00:51:57;;;;;;;11.52;6.45;;;;;;;7.02;100.00;100486.91;10052614;28;20475;-71
2024/04/03 00:56:52;;;;;;;12.65;6.78;;;;;;;6.99;100.00;100492.13;10055857;28;20624;-70
2024/04/03 01:01:49;;;;;;;11.95;6.88;;;;;;;6.98;100.00;100501.38;10077497;28;20051;-70
2024/04/03 01:06:44;;;;;;;12.55;6.82;;;;;;;6.98;100.00;100506.81;10109908;28;20117;-70
2024/04/03 01:11:40;;;;;;;13.23;7.38;;;;;;;6.84;100.00;100501.34;10104324;28;20097;-70
2024/04/03 01:16:36;;;;;;;13.20;7.85;;;;;;;6.91;100.00;100491.69;10076815;28;20054;-70
2024/04/03 01:21:32;;;;;;;9.52;6.80;;;;;;;6.80;100.00;100508.47;10072363;28;20567;-70
2024/04/03 01:26:27;;;;;;;12.10;6.40;;;;;;;6.71;100.00;100508.38;10081032;28;20470;-70
2024/04/03 01:31:23;;;;;;;11.30;7.22;;;;;;;6.72;100.00;100505.34;10082937;28;20050;-70
2024/04/03 01:36:18;;;;;;;15.35;7.40;;;;;;;6.62;100.00;100504.72;10093850;28;20059;-70
2024/04/03 01:41:14;;;;;;;12.43;7.03;;;;;;;6.65;100.00;100504.09;10075630;28;20097;-70
2024/04/03 01:46:10;;;;;;;11.05;6.75;;;;;;;6.68;100.00;100514.38;10075032;28;20047;-70
2024/04/03 01:51:06;;;;;;;13.68;9.07;;;;;;;6.62;100.00;100515.56;10080460;28;20054;-70
2024/04/03 01:56:01;;;;;;;14.65;7.80;;;;;;;6.59;100.00;100508.00;10071179;28;20071;-71
2024/04/03 02:00:57;;;;;;;13.65;8.10;;;;;;;6.65;100.00;100509.53;10074529;28;20044;-70
2024/04/03 02:05:53;;;;;;;12.85;8.52;;;;;;;6.65;100.00;100521.22;10073598;28;20047;-69
2024/04/03 02:10:49;;;;;;;13.25;8.07;;;;;;;6.78;100.00;100516.94;10095104;28;20046;-70
2024/04/03 02:15:54;;;;;;;13.63;7.60;;;;;;;6.66;100.00;100527.44;10072406;28;20471;-70
2024/04/03 02:20:50;;;;;;;11.88;6.78;;;;;;;6.43;100.00;100519.13;10074054;28;20070;-70
2024/04/03 02:25:45;;;;;;;9.23;6.57;;;;;;;6.38;100.00;100527.31;10072851;28;20050;-70
2024/04/03 02:30:41;;;;;;;7.45;5.70;;;;;;;6.46;100.00;100534.03;10073044;28;20472;-70
2024/04/03 02:35:37;;;;;;;6.53;5.13;;;;;;;6.26;100.00;100541.34;10095340;28;20536;-70
2024/04/03 02:40:32;;;;;;;6.65;4.72;;;;;;;6.23;100.00;100541.94;10075138;28;20072;-70
2024/04/03 02:45:28;;;;;;;6.95;5.18;;;;;;;6.28;100.00;100541.06;10053048;28;20679;-69
2024/04/03 02:50:23;;;;;;;6.18;4.90;;;;;;;6.30;100.00;100541.56;10071690;28;20183;-70
2024/04/03 02:55:19;;;;;;;8.35;4.80;;;;;;;6.33;100.00;100535.53;10070944;28;20057;-70
2024/04/03 03:00:15;;;;;;;7.05;5.45;;;;;;;6.42;100.00;100547.38;10030189;28;20044;-71
2024/04/03 03:05:11;;;;;;;6.93;5.82;;;;;;;6.29;100.00;100531.81;10073380;28;20051;-70
2024/04/03 03:10:06;;;;;;;7.78;5.70;;;;;;;6.28;100.00;100543.78;10104165;28;20047;-71
2024/04/03 03:15:02;;;;;;;7.07;5.70;;;;;;;6.19;100.00;100540.91;10082582;28;20182;-71
2024/04/03 03:19:57;;;;;;;7.45;5.93;;;;;;;6.06;100.00;100542.44;10100859;28;20061;-71
2024/04/03 03:24:53;;;;;;;7.68;5.75;;;;;;;6.02;100.00;100552.25;10036800;28;20039;-71
2024/04/03 03:29:49;;;;;;;7.00;6.07;;;;;;;5.91;100.00;100550.75;10066492;28;20128;-71
2024/04/03 03:34:44;;;;;;;12.20;6.32;;;;;;;5.82;100.00;100544.34;10069270;28;20121;-70
2024/04/03 03:39:43;;;;;;;8.15;6.40;;;;;;;5.88;100.00;100540.47;10069193;28;20054;-70
2024/04/03 03:44:38;;;;;;;8.70;6.93;;;;;;;5.68;100.00;100545.03;10063242;28;20051;-73
2024/04/03 03:54:52;;;;;;;8.75;7.05;;;;;;;5.61;100.00;100536.44;10042129;28;20075;-71
2024/04/03 03:59:48;;;;;;;8.70;6.70;;;;;;;5.66;100.00;100539.13;10058644;28;20079;-71
2024/04/03 04:04:48;;;;;;;7.35;6.40;;;;;;;5.67;100.00;100551.56;10044070;28;20488;-72
2024/04/03 04:09:50;;;;;;;7.82;6.70;;;;;;;5.54;100.00;100549.53;10080180;28;20542;-72
2024/04/03 04:14:52;;;;;;;6.88;6.18;;;;;;;5.26;100.00;100549.28;10059280;28;20542;-72
2024/04/03 04:19:52;;;;;;;7.07;6.35;;;;;;;5.21;100.00;100553.94;10066575;28;20483;-73
2024/04/03 04:24:49;;;;;;;7.45;6.75;;;;;;;5.30;100.00;100554.94;10067297;28;20074;-74
2024/04/03 04:29:45;;;;;;;6.72;6.10;;;;;;;4.95;100.00;100550.66;10065026;28;20079;-72
2024/04/03 04:34:41;;;;;;;6.55;5.85;;;;;;;5.14;100.00;100565.13;10068616;28;20093;-73
2024/04/03 04:39:37;;;;;;;8.10;5.70;;;;;;;5.15;100.00;100561.34;10076397;28;20047;-73
2024/04/03 04:44:33;;;;;;;6.50;5.90;;;;;;;5.26;100.00;100579.09;10066074;28;20097;-73
2024/04/03 04:49:28;;;;;;;6.57;5.88;;;;;;;5.06;100.00;100584.72;10077896;28;20059;-74
2024/04/03 04:54:24;;;;;;;6.63;6.03;;;;;;;5.26;100.00;100592.66;10056099;28;20561;-73
2024/04/03 04:59:19;;;;;;;6.75;6.15;;;;;;;5.23;100.00;100589.72;10084121;28;20287;-73
2024/04/03 05:04:15;;;;;;;7.18;6.47;;;;;;;5.20;100.00;100591.09;10074531;28;20038;-73
2024/04/03 05:09:10;;;;;;;8.68;7.30;;;;;;;5.14;100.00;100589.50;10077400;28;20130;-73
2024/04/03 05:14:06;;;;;;;7.80;6.80;;;;;;;5.15;100.00;100593.84;10096006;28;20038;-73
2024/04/03 05:19:02;;;;;;;8.25;7.22;;;;;;;5.30;100.00;100606.47;10083597;28;20483;-70
2024/04/03 05:23:57;;;;;;;10.85;8.10;;;;;;;5.23;100.00;100605.97;10088144;28;20459;-70
2024/04/03 05:28:53;;;;;;;9.13;8.23;;;;;;;5.25;100.00;100604.59;10071028;28;20579;-70
2024/04/03 05:33:50;;;;;;;8.77;7.88;;;;;;;5.31;100.00;100599.13;10069919;28;20051;-70
2024/04/03 05:38:45;;;;;;;8.98;7.90;;;;;;;5.20;100.00;100590.28;10074421;28;20077;-71
2024/04/03 05:43:41;;;;;;;10.35;8.35;;;;;;;5.36;100.00;100599.06;10093739;28;20052;-70
2024/04/03 05:48:37;;;;;;;8.60;7.70;;;;;;;5.39;100.00;100587.69;10079750;28;20055;-70
2024/04/03 05:53:34;;;;;;;8.93;7.78;;;;;;;5.43;100.00;100588.69;10047288;28;20551;-69
2024/04/03 05:58:30;;;;;;;8.30;7.47;;;;;;;5.46;100.00;100590.84;10085677;28;20067;-70
2024/04/03 06:03:25;;;;;;;9.35;7.32;;;;;;;5.28;100.00;100593.19;10088691;28;20345;-70
2024/04/03 06:08:21;;;;;;;7.28;6.57;;;;;;;5.38;100.00;100596.88;10085248;28;20054;-70
2024/04/03 06:13:17;;;;;;;7.40;6.60;;;;;;;5.63;100.00;100604.75;10070899;28;20079;-70
2024/04/03 06:18:13;;;;;;;7.88;7.05;;;;;;;5.45;100.00;100608.22;10092123;28;20055;-70
2024/04/03 06:23:10;;;;;;;7.78;6.60;;;;;;;5.60;100.00;100601.84;10104128;28;20131;-70
2024/04/03 06:28:05;;;;;;;6.88;6.18;;;;;;;5.63;100.00;100593.91;10077779;28;20082;-70
2024/04/03 06:33:01;;;;;;;7.57;5.50;;;;;;;5.79;100.00;100596.47;10071611;28;20134;-70
2024/04/03 06:37:56;;;;;;;5.97;5.38;;;;;;;5.84;100.00;100599.13;10078781;28;20055;-70
2024/04/03 06:42:54;;;;;;;10.32;5.93;;;;;;;5.84;100.00;100601.84;10080418;28;20150;-70
2024/04/03 06:47:49;;;;;;;6.53;5.45;;;;;;;6.04;100.00;100598.91;10082062;28;20077;-70
2024/04/03 06:52:45;;;;;;;6.35;5.35;;;;;;;6.00;100.00;100600.59;10065840;28;20534;-70
2024/04/03 06:57:42;;;;;;;5.82;5.22;;;;;;;5.67;100.00;100594.16;10071525;28;20069;-70
2024/04/03 07:02:38;;;;;;;5.97;5.47;;;;;;;5.94;100.00;100596.34;10075918;28;20168;-71
2024/04/03 07:07:33;;;;;;;5.28;4.78;;;;;;;6.00;100.00;100587.03;10090663;28;20053;-70
2024/04/03 07:12:29;;;;;;;5.95;5.28;;;;;;;5.96;100.00;100591.41;10106090;28;20074;-70
2024/04/03 07:17:24;;;;;;;5.35;4.82;;;;;;;6.20;100.00;100590.59;10086804;28;20134;-70
2024/04/03 07:22:20;;;;;;;5.13;4.63;;;;;;;6.20;100.00;100587.88;10086667;28;20039;-70
2024/04/03 07:27:16;;;;;;;5.53;4.90;;;;;;;6.17;100.00;100599.31;10087622;28;20083;-71
2024/04/03 07:32:11;;;;;;;5.35;4.68;;;;;;;6.25;100.00;100594.03;10054332;28;20391;-70
2024/04/03 07:37:07;;;;;;;5.70;4.97;;;;;;;6.17;100.00;100597.38;10048885;28;20070;-70
2024/04/03 07:42:03;;;;;;;5.93;5.07;;;;;;;6.43;100.00;100595.16;10051205;28;20047;-70
2024/04/03 07:46:58;;;;;;;5.90;5.30;;;;;;;6.41;100.00;100599.28;10069088;28;20043;-71
2024/04/03 07:51:54;;;;;;;5.88;4.93;;;;;;;6.61;100.00;100600.88;10075544;28;20055;-70
2024/04/03 07:56:49;;;;;;;5.20;4.70;;;;;;;6.78;100.00;100605.78;10083181;28;20423;-70
2024/04/03 08:01:45;;;;;;;5.25;4.75;;;;;;;6.76;100.00;100608.00;10074951;28;20043;-71
2024/04/03 08:06:41;;;;;;;6.22;5.43;;;;;;;6.95;100.00;100601.44;10077012;28;20050;-70
2024/04/03 08:11:36;;;;;;;5.50;5.00;;;;;;;7.25;100.00;100598.53;10088680;28;20085;-70
2024/04/03 08:16:32;;;;;;;6.75;5.57;;;;;;;7.53;100.00;100596.66;10072151;28;20051;-70
2024/04/03 08:21:28;;;;;;;6.47;5.88;;;;;;;7.60;100.00;100586.19;10082888;28;20091;-69
2024/04/03 08:26:24;;;;;;;7.03;5.88;;;;;;;7.74;100.00;100600.63;10071241;28;20126;-70
2024/04/03 08:31:19;;;;;;;6.97;6.03;;;;;;;7.34;100.00;100607.63;10068816;28;20043;-70
2024/04/03 08:36:15;;;;;;;6.38;5.78;;;;;;;7.69;100.00;100598.00;10083991;28;20500;-70
2024/04/03 08:41:10;;;;;;;7.93;6.18;;;;;;;7.78;100.00;100601.63;10087679;28;20190;-70
2024/04/03 08:46:08;;;;;;;7.97;6.10;;;;;;;8.12;100.00;100600.44;10093802;28;20047;-70
2024/04/03 08:51:05;;;;;;;7.30;6.22;;;;;;;8.06;100.00;100590.75;10073829;28;20078;-70
2024/04/03 08:56:00;;;;;;;8.55;6.28;;;;;;;8.10;100.00;100594.47;10071397;28;20472;-70
2024/04/03 09:00:56;;;;;;;7.63;6.53;;;;;;;8.10;100.00;100597.19;10077912;28;20049;-70
2024/04/03 09:05:53;;;;;;;7.45;6.10;;;;;;;8.48;100.00;100596.97;10089590;28;20098;-70
2024/04/03 09:10:56;;;;;;;8.30;6.25;;;;;;;8.51;100.00;100607.22;10074151;28;20067;-69
2024/04/03 09:15:52;;;;;;;8.15;6.60;;;;;;;8.44;100.00;100601.41;10045628;28;20051;-70
2024/04/03 09:20:51;;;;;;;8.88;6.97;;;;;;;8.42;100.00;100609.91;10081520;28;20039;-70
2024/04/03 09:25:47;;;;;;;8.48;6.72;;;;;;;8.61;100.00;100607.03;10091536;28;20071;-70
2024/04/03 09:30:48;;;;;;;9.70;6.28;;;;;;;8.90;100.00;100607.72;10042285;28;20043;-70
2024/04/03 09:35:43;;;;;;;7.53;6.72;;;;;;;8.76;100.00;100602.34;10095289;28;20090;-70
2024/04/03 09:40:40;;;;;;;10.45;6.45;;;;;;;8.91;100.00;100599.25;10074124;28;20047;-71
2024/04/03 09:45:35;;;;;;;9.77;6.40;;;;;;;9.27;100.00;100590.19;10074116;28;20095;-70
2024/04/03 09:50:53;;;;;;;8.75;6.75;;;;;;;9.02;100.00;100586.97;10098317;28;20047;-70
2024/04/03 09:55:51;;;;;;;9.13;7.10;;;;;;;9.11;100.00;100588.94;10087742;28;20129;-71
2024/04/03 10:00:52;;;;;;;10.77;7.35;;;;;;;8.90;100.00;100586.72;10091493;28;20709;-70
2024/04/03 10:05:48;;;;;;;10.40;7.55;;;;;;;9.27;100.00;100592.91;10070512;28;20075;-70
2024/04/03 10:10:45;;;;;;;11.10;8.50;;;;;;;9.22;100.00;100593.03;10090475;28;20043;-70
2024/04/03 10:15:41;;;;;;;11.30;8.05;;;;;;;9.11;100.00;100595.22;10082534;28;20071;-71
2024/04/03 10:20:38;;;;;;;9.35;7.78;;;;;;;9.26;100.00;100597.56;10081299;28;20039;-69
2024/04/03 10:25:35;;;;;;;9.90;8.05;;;;;;;9.30;100.00;100595.00;10087264;28;20085;-70
2024/04/03 10:30:30;;;;;;;15.05;8.48;;;;;;;9.24;100.00;100596.25;10063807;28;20544;-70
2024/04/03 10:35:28;;;;;;;11.75;9.20;;;;;;;9.37;100.00;100606.28;10087595;28;20043;-70
2024/04/03 10:40:25;;;;;;;10.80;8.30;;;;;;;9.59;100.00;100610.09;10098871;28;20596;-71
2024/04/03 10:45:21;;;;;;;10.35;7.65;;;;;;;9.73;100.00;100602.63;10069882;28;21729;-70
2024/04/03 10:50:18;;;;;;;11.93;8.85;;;;;;;9.48;100.00;100596.72;10066612;28;20058;-70
2024/04/03 10:55:19;;;;;;;11.20;8.45;;;;;;;9.58;100.00;100597.56;10076707;28;20050;-71
2024/04/03 11:00:15;;;;;;;10.95;8.35;;;;;;;9.59;100.00;100607.38;10086324;28;20471;-70
2024/04/03 11:05:16;;;;;;;10.32;8.18;;;;;;;9.60;100.00;100598.06;10070869;28;20083;-71
2024/04/03 11:10:12;;;;;;;12.40;8.50;;;;;;;9.97;100.00;100606.88;10071839;28;20091;-70
2024/04/03 11:15:09;;;;;;;12.30;9.40;;;;;;;10.03;100.00;100605.63;10087501;28;20051;-71
2024/04/03 11:20:06;;;;;;;9.75;8.25;;;;;;;9.97;100.00;100595.94;10072348;28;20047;-70
2024/04/03 11:25:02;;;;;;;12.88;8.23;;;;;;;10.00;100.00;100606.22;10086232;28;20083;-70
2024/04/03 11:29:58;;;;;;;11.40;8.05;;;;;;;9.85;100.00;100607.47;10032750;29;20055;-70
2024/04/03 11:34:54;;;;;;;10.85;8.35;;;;;;;9.87;100.00;100603.31;10031789;29;20043;-70
2024/04/03 11:39:49;;;;;;;10.95;8.85;;;;;;;9.68;100.00;100603.56;10068407;28;20142;-70
2024/04/03 11:44:45;;;;;;;11.45;8.60;;;;;;;9.29;100.00;100615.22;10076778;28;20039;-70
2024/04/03 11:49:41;;;;;;;12.32;8.50;;;;;;;9.44;100.00;100616.75;10073020;28;20535;-70
2024/04/03 11:54:36;;;;;;;12.48;8.70;;;;;;;9.21;100.00;100624.16;10036690;29;20040;-70
2024/04/03 11:59:32;;;;;;;10.75;8.02;;;;;;;9.36;100.00;100626.50;10043483;28;20419;-70
2024/04/03 12:04:27;;;;;;;11.10;8.65;;;;;;;9.19;100.00;100615.47;10030417;29;20459;-70
2024/04/03 12:09:23;;;;;;;11.57;8.10;;;;;;;9.35;100.00;100619.44;10046923;28;20507;-70
2024/04/03 12:14:19;;;;;;;13.20;8.40;;;;;;;9.65;100.00;100623.31;10046995;28;20040;-71
2024/04/03 12:19:26;;;;;;;11.77;8.02;;;;;;;9.68;100.00;100619.94;10070084;28;20546;-70
2024/04/03 12:24:22;;;;;;;13.13;7.88;;;;;;;9.85;100.00;100611.00;10100260;28;20074;-70
2024/04/03 12:29:18;;;;;;;10.75;7.43;;;;;;;9.67;100.00;100606.59;10095318;28;20039;-70
2024/04/03 12:34:13;;;;;;;12.00;8.10;;;;;;;9.93;100.00;100611.34;10076830;28;20055;-70
2024/04/03 12:39:09;;;;;;;10.13;7.50;;;;;;;9.88;100.00;100599.44;10083702;28;20043;-70
2024/04/03 12:44:04;;;;;;;12.13;7.78;;;;;;;9.87;100.00;100597.84;10083410;28;20039;-70
2024/04/03 12:49:00;;;;;;;12.98;7.97;;;;;;;9.67;100.00;100595.69;10075998;28;20130;-70
2024/04/03 12:53:56;;;;;;;11.65;7.10;;;;;;;9.73;100.00;100601.81;10117544;28;20047;-70
2024/04/03 12:58:52;;;;;;;12.05;7.55;;;;;;;9.94;100.00;100602.06;10075454;28;20054;-70
2024/04/03 13:03:51;;;;;;;11.80;7.63;;;;;;;9.70;100.00;100592.34;10081406;28;20078;-70
2024/04/03 13:08:47;;;;;;;11.75;7.97;;;;;;;9.67;100.00;100587.47;10076726;28;20074;-70
2024/04/03 13:13:43;;;;;;;11.65;8.10;;;;;;;9.74;100.00;100576.91;10090415;28;20047;-70
2024/04/03 13:18:38;;;;;;;10.82;6.95;;;;;;;9.80;100.00;100575.66;10081000;28;20357;-70
2024/04/03 13:23:34;;;;;;;10.75;6.65;;;;;;;9.75;100.00;100567.63;10093406;28;20405;-70
2024/04/03 13:28:30;;;;;;;11.88;7.25;;;;;;;9.78;100.00;100569.69;10094294;28;20039;-70
2024/04/03 13:33:26;;;;;;;10.57;7.10;;;;;;;9.82;100.00;100567.97;10073690;28;20491;-70
2024/04/03 13:38:22;;;;;;;11.27;7.00;;;;;;;9.93;100.00;100570.38;10082685;28;20047;-70
2024/04/03 13:43:17;;;;;;;10.82;6.88;;;;;;;9.92;100.00;100564.13;10077204;28;20074;-70
2024/04/03 13:48:13;;;;;;;13.70;7.70;;;;;;;9.92;100.00;100557.88;10042965;28;20043;-70
2024/04/03 13:53:09;;;;;;;9.70;6.63;;;;;;;10.01;100.00;100561.44;10062624;28;20066;-70
2024/04/03 13:58:07;;;;;;;14.18;7.57;;;;;;;9.80;100.00;100553.81;10080644;28;20039;-70
2024/04/03 14:03:03;;;;;;;10.63;7.55;;;;;;;9.78;100.00;100550.59;10078413;28;20202;-70
2024/04/03 14:07:58;;;;;;;11.00;6.13;;;;;;;9.81;100.00;100547.22;10066207;28;20119;-69
2024/04/03 14:12:54;;;;;;;11.07;7.30;;;;;;;9.78;100.00;100541.59;10052277;28;20042;-70
2024/04/03 14:17:49;;;;;;;11.57;7.40;;;;;;;9.75;100.00;100537.59;10052704;28;20051;-70
2024/04/03 14:22:45;;;;;;;18.80;7.80;;;;;;;9.74;100.00;100538.69;10068701;28;20051;-71
2024/04/03 14:27:41;;;;;;;9.80;6.68;;;;;;;9.79;100.00;100521.34;10089277;28;20095;-70
2024/04/03 14:32:37;;;;;;;9.52;6.38;;;;;;;9.76;100.00;100520.06;10083220;28;20506;-70
2024/04/03 14:37:34;;;;;;;10.13;6.38;;;;;;;9.67;100.00;100511.03;10068383;28;20067;-71
2024/04/03 14:42:29;;;;;;;10.05;5.93;;;;;;;9.64;100.00;100514.41;10050879;28;20070;-71
2024/04/03 14:47:25;;;;;;;10.65;5.85;;;;;;;9.46;100.00;100503.41;10087353;28;20047;-71
2024/04/03 14:52:21;;;;;;;10.38;6.55;;;;;;;9.47;100.00;100507.78;10087214;28;20039;-71
2024/04/03 14:57:17;;;;;;;9.57;6.10;;;;;;;9.36;100.00;100501.00;10072718;28;20043;-70
2024/04/03 15:02:13;;;;;;;8.07;5.47;;;;;;;9.38;100.00;100493.28;10065069;28;20415;-71
2024/04/03 15:07:09;;;;;;;11.63;6.03;;;;;;;9.24;100.00;100476.22;10071278;28;20045;-72
2024/04/03 15:12:05;;;;;;;7.72;5.22;;;;;;;9.40;100.00;100480.16;10062157;28;20074;-70
2024/04/03 15:17:21;;;;;;;9.70;6.35;;;;;;;9.51;100.00;100479.84;10060626;28;20066;-72
2024/04/03 15:22:19;;;;;;;9.13;5.20;;;;;;;9.38;100.00;100482.38;10083085;28;20129;-71
2024/04/03 15:27:18;;;;;;;8.13;5.30;;;;;;;9.44;100.00;100478.38;10083422;28;20077;-71
2024/04/03 15:32:14;;;;;;;8.38;5.25;;;;;;;9.48;100.00;100479.34;10082254;28;20678;-71
2024/04/03 15:37:09;;;;;;;7.45;4.20;;;;;;;9.60;100.00;100477.94;10081088;28;20075;-71
2024/04/03 15:42:08;;;;;;;8.13;4.55;;;;;;;9.60;100.00;100477.94;10065613;28;20042;-71
2024/04/03 15:47:04;;;;;;;10.68;5.03;;;;;;;9.63;100.00;100478.13;10068553;28;20079;-71
2024/04/03 15:52:00;;;;;;;12.40;5.07;;;;;;;9.52;100.00;100470.56;10078789;28;20127;-71
2024/04/03 15:56:55;;;;;;;7.63;4.22;;;;;;;9.72;100.00;100469.94;10069423;28;21902;-72
2024/04/03 16:01:51;;;;;;;7.15;4.70;;;;;;;9.61;100.00;100468.66;10084227;28;20050;-73
2024/04/03 16:06:46;;;;;;;7.65;4.82;;;;;;;9.57;100.00;100462.22;10056300;28;20058;-73
2024/04/03 16:11:47;;;;;;;9.32;5.70;;;;;;;9.47;100.00;100464.13;10061373;28;20043;-73
2024/04/03 16:16:42;;;;;;;9.40;5.05;;;;;;;9.52;100.00;100465.09;10062076;28;20090;-72
2024/04/03 16:21:38;;;;;;;8.10;5.07;;;;;;;9.57;100.00;100451.28;10088138;28;20085;-73
2024/04/03 16:26:34;;;;;;;8.55;4.95;;;;;;;9.58;100.00;100447.44;10094306;28;20089;-72
2024/04/03 16:31:30;;;;;;;7.63;4.63;;;;;;;9.45;100.00;100449.97;10065990;28;20431;-73
2024/04/03 16:36:25;;;;;;;10.32;4.97;;;;;;;9.51;100.00;100452.56;10059226;28;20075;-72
2024/04/03 16:41:21;;;;;;;8.50;5.07;;;;;;;9.44;100.00;100453.81;10064946;28;20047;-72
2024/04/03 16:46:16;;;;;;;8.38;4.93;;;;;;;9.41;100.00;100457.19;10085871;28;20043;-73
2024/04/03 16:51:12;;;;;;;7.57;4.55;;;;;;;9.43;100.00;100452.22;10089376;28;20053;-72
2024/04/03 16:56:08;;;;;;;7.93;4.85;;;;;;;9.41;100.00;100443.53;10077700;28;20122;-72
2024/04/03 17:01:08;;;;;;;10.40;5.20;;;;;;;9.35;100.00;100439.38;10062481;28;20070;-72
2024/04/03 17:06:07;;;;;;;8.40;5.43;;;;;;;9.34;100.00;100443.19;10062033;28;20103;-73
2024/04/03 17:11:03;;;;;;;9.30;5.35;;;;;;;9.31;100.00;100432.94;10045309;28;20066;-72
2024/04/03 17:15:58;;;;;;;11.10;5.95;;;;;;;9.27;100.00;100432.75;10078762;28;20062;-73
2024/04/03 17:20:54;;;;;;;9.27;5.80;;;;;;;9.26;100.00;100430.34;10065418;28;20043;-72
2024/04/03 17:25:50;;;;;;;8.80;5.78;;;;;;;9.30;100.00;100430.50;10067115;28;20048;-73
2024/04/03 17:30:45;;;;;;;10.60;6.20;;;;;;;9.27;100.00;100427.28;10041425;28;20311;-72
2024/04/03 17:35:42;;;;;;;9.82;5.82;;;;;;;9.33;100.00;100418.94;10035703;28;20047;-72
2024/04/03 17:40:37;;;;;;;10.75;6.65;;;;;;;9.31;100.00;100422.00;10082213;28;20066;-73
2024/04/03 17:45:33;;;;;;;12.45;6.53;;;;;;;9.29;100.00;100426.97;10070213;28;20064;-73
2024/04/03 17:50:29;;;;;;;11.65;6.43;;;;;;;9.29;100.00;100437.09;10077660;28;20047;-72
2024/04/03 17:55:25;;;;;;;11.07;6.13;;;;;;;9.33;100.00;100441.59;10072436;28;20046;-72
2024/04/03 18:00:21;;;;;;;10.57;6.30;;;;;;;9.31;100.00;100440.31;10071946;28;20051;-73
2024/04/03 18:05:16;;;;;;;11.05;6.80;;;;;;;9.31;100.00;100432.13;10087782;28;20055;-72
2024/04/03 18:10:12;;;;;;;14.75;8.32;;;;;;;9.34;100.00;100436.94;10038447;28;20142;-72
2024/04/03 18:15:09;;;;;;;12.93;7.80;;;;;;;9.41;100.00;100427.16;10057489;28;20044;-70
2024/04/03 18:20:06;;;;;;;11.38;7.38;;;;;;;9.44;100.00;100410.16;10094006;28;21222;-71
2024/04/03 18:25:02;;;;;;;11.20;6.90;;;;;;;9.43;100.00;100411.28;10089819;28;20043;-71
2024/04/03 18:29:57;;;;;;;12.10;7.30;;;;;;;9.47;100.00;100406.81;10089978;28;20055;-71
2024/04/03 18:34:53;;;;;;;12.43;7.53;;;;;;;9.46;100.00;100413.38;10091821;28;20043;-71
2024/04/03 18:39:48;;;;;;;16.73;7.97;;;;;;;9.53;100.00;100417.56;10076789;28;20043;-72
2024/04/03 18:44:44;;;;;;;11.95;7.53;;;;;;;9.46;100.00;100418.81;10073317;28;20439;-71
2024/04/03 18:49:40;;;;;;;12.05;7.85;;;;;;;9.48;100.00;100421.25;10045273;28;20051;-71
2024/04/03 18:54:35;;;;;;;14.32;8.20;;;;;;;9.52;100.00;100421.44;10027814;29;20083;-71
2024/04/03 18:59:32;;;;;;;11.52;6.85;;;;;;;9.56;100.00;100422.38;10068419;28;20055;-71
2024/04/03 19:04:27;;;;;;;9.93;6.45;;;;;;;9.58;100.00;100420.13;10085783;28;20063;-71
2024/04/03 19:09:25;;;;;;;12.18;7.00;;;;;;;9.64;100.00;100427.06;10085315;28;20051;-71
2024/04/03 19:14:21;;;;;;;12.45;7.75;;;;;;;9.69;100.00;100421.44;10084903;28;20067;-71
2024/04/03 19:19:17;;;;;;;11.75;6.85;;;;;;;9.66;100.00;100416.63;10069194;28;20074;-71
2024/04/03 19:24:12;;;;;;;11.02;7.00;;;;;;;9.68;100.00;100419.84;10064478;28;20039;-71
2024/04/03 19:29:08;;;;;;;12.02;7.47;;;;;;;9.71;100.00;100423.88;10063408;28;20074;-71
2024/04/03 19:34:05;;;;;;;12.35;8.50;;;;;;;9.78;100.00;100414.06;10084595;28;20035;-70
2024/04/03 19:39:01;;;;;;;13.85;8.15;;;;;;;9.76;100.00;100416.31;10066716;28;20081;-70
2024/04/03 19:43:57;;;;;;;15.70;9.13;;;;;;;9.76;100.00;100416.31;10065647;28;20050;-71
2024/04/03 19:48:56;;;;;;;12.48;7.88;;;;;;;9.79;100.00;100414.88;10083165;28;20058;-71
2024/04/03 19:53:51;;;;;;;14.48;8.02;;;;;;;9.73;100.00;100416.97;10082292;28;20452;-72
2024/04/03 19:58:47;;;;;;;13.05;6.60;;;;;;;9.77;100.00;100417.94;10073087;28;20042;-71
2024/04/03 20:03:43;;;;;;;10.25;5.20;;;;;;;9.80;100.00;100421.94;10072419;28;20079;-70
2024/04/03 20:08:39;;;;;;;11.07;5.15;;;;;;;9.85;100.00;100410.88;10082170;28;20051;-71
2024/04/03 20:13:34;;;;;;;6.90;4.32;;;;;;;9.88;100.00;100419.22;10067351;28;20455;-70
2024/04/03 20:18:30;;;;;;;8.10;3.90;;;;;;;9.85;100.00;100403.47;10040713;28;20511;-73
2024/04/03 20:23:26;;;;;;;6.20;3.65;;;;;;;9.83;100.00;100403.00;10056050;28;20365;-74
2024/04/03 20:28:21;;;;;;;7.03;3.63;;;;;;;9.88;100.00;100402.81;10053023;28;20036;-74
2024/04/03 20:33:18;;;;;;;6.50;4.00;;;;;;;9.88;100.00;100405.56;10082468;28;20039;-74
2024/04/03 20:38:14;;;;;;;7.07;4.22;;;;;;;9.82;100.00;100390.47;10064571;28;20055;-72
2024/04/03 20:43:09;;;;;;;8.20;4.35;;;;;;;9.85;100.00;100408.94;10055524;28;20054;-75
2024/04/03 20:48:06;;;;;;;7.38;4.68;;;;;;;9.85;100.00;100398.00;10075825;28;20114;-75
2024/04/03 20:53:03;;;;;;;6.95;4.70;;;;;;;9.87;100.00;100401.22;10056543;28;20079;-74
2024/04/03 20:58:00;;;;;;;7.00;4.35;;;;;;;9.85;100.00;100392.56;10070668;28;20496;-74
2024/04/03 21:02:56;;;;;;;9.27;4.30;;;;;;;9.87;100.00;100398.50;10093259;28;20069;-74
2024/04/03 21:07:51;;;;;;;7.03;4.55;;;;;;;9.86;100.00;100404.28;10091021;28;20513;-74
2024/04/03 21:12:52;;;;;;;7.05;4.18;;;;;;;9.85;100.00;100398.00;10078648;28;20050;-74
2024/04/03 21:17:47;;;;;;;7.25;3.35;;;;;;;9.87;100.00;100395.78;10074948;28;21259;-72
2024/04/03 21:22:43;;;;;;;7.78;3.83;;;;;;;9.84;100.00;100396.41;10072849;28;20040;-72
2024/04/03 21:27:39;;;;;;;6.72;4.00;;;;;;;9.86;100.00;100393.34;10064060;28;20047;-71
2024/04/03 21:32:35;;;;;;;5.97;3.47;;;;;;;9.81;100.00;100385.31;10080526;28;20078;-72
2024/04/03 21:37:31;;;;;;;6.38;3.90;;;;;;;9.79;100.00;100380.16;10069042;28;20039;-73
2024/04/03 21:42:26;;;;;;;6.97;3.65;;;;;;;9.77;100.00;100379.72;10073224;28;20043;-73
2024/04/03 21:47:22;;;;;;;5.95;3.45;;;;;;;9.74;100.00;100374.88;10051051;28;20047;-76
2024/04/03 21:52:18;;;;;;;7.43;3.72;;;;;;;9.77;100.00;100379.72;10089478;28;20579;-74
2024/04/03 21:57:14;;;;;;;7.78;4.00;;;;;;;9.73;100.00;100373.28;10112150;28;20047;-74
2024/04/03 22:02:10;;;;;;;6.50;3.65;;;;;;;9.73;100.00;100377.94;10075381;28;20553;-74
2024/04/03 22:07:05;;;;;;;5.97;3.65;;;;;;;9.73;100.00;100367.81;10075661;28;20533;-74
2024/04/03 22:12:01;;;;;;;6.15;3.15;;;;;;;9.72;100.00;100374.38;10091389;28;20500;-74
2024/04/03 22:16:56;;;;;;;6.10;2.92;;;;;;;9.74;100.00;100374.88;10092423;28;20066;-74
2024/04/03 22:21:52;;;;;;;6.28;3.28;;;;;;;9.67;100.00;100350.78;10072711;28;20039;-74
2024/04/03 22:26:47;;;;;;;5.65;3.42;;;;;;;9.72;100.00;100363.47;10103947;28;20408;-74
2024/04/03 22:31:43;;;;;;;5.60;3.47;;;;;;;9.66;100.00;100362.84;10072560;28;20118;-74
2024/04/03 22:36:39;;;;;;;5.38;2.90;;;;;;;9.62;100.00;100369.25;10073871;28;20054;-75
2024/04/03 22:41:34;;;;;;;6.43;3.67;;;;;;;9.59;100.00;100364.44;10098053;28;20043;-73